Time;durP1;ratioP1;P1;durP2;ratioP2;P2;SDS_P1;SDS_P2;PMS_P1;PMS_P2;Temp;Humidity;BMP_temperature;BMP_pressure;BME280_temperature;BME280_humidity;BME280_pressure;Samples;Min_cycle;Max_cycle;Signal;HPM_P1;HPM_P2
2023/10/21 00:09:03;;;;;;;2.00;1.70;;;;;;;7.44;100.00;98561.07;674180;1263;139276;-84
2023/10/21 00:24:08;;;;;;;2.90;1.70;;;;;;;7.51;100.00;98571.70;672597;1264;138954;-81
2023/10/21 00:39:12;;;;;;;2.70;1.90;;;;;;;7.58;100.00;98557.55;675086;1263;139575;-83
2023/10/21 00:54:16;;;;;;;7.70;3.40;;;;;;;8.11;100.00;98569.09;673590;1266;139272;-82
2023/10/21 01:09:22;;;;;;;5.10;2.50;;;;;;;7.70;100.00;98567.82;674325;1261;138473;-82
2023/10/21 01:24:25;;;;;;;4.00;1.90;;;;;;;7.63;100.00;98563.81;673059;1266;138811;-82
2023/10/21 01:39:28;;;;;;;5.90;2.50;;;;;;;7.59;100.00;98570.16;671214;1276;139033;-82
2023/10/21 01:54:31;;;;;;;7.50;3.30;;;;;;;7.62;100.00;98559.11;673403;1263;139324;-83
2023/10/21 02:09:34;;;;;;;9.90;3.20;;;;;;;7.63;100.00;98563.80;669393;1265;138451;-82
2023/10/21 02:24:38;;;;;;;4.80;2.90;;;;;;;7.71;100.00;98562.25;671105;1266;139758;-82
2023/10/21 02:39:41;;;;;;;8.40;3.20;;;;;;;7.71;100.00;98559.50;669482;1279;138251;-82
2023/10/21 02:54:44;;;;;;;7.30;2.80;;;;;;;7.72;100.00;98572.29;669469;1265;138640;-82
2023/10/21 03:09:48;;;;;;;6.10;3.40;;;;;;;7.78;100.00;98582.13;670907;1264;139047;-83
2023/10/21 03:24:51;;;;;;;7.00;3.20;;;;;;;7.78;100.00;98578.99;669434;1266;138637;-83
2023/10/21 03:39:55;;;;;;;5.60;3.10;;;;;;;7.75;100.00;98576.38;671085;1265;139659;-83
2023/10/21 03:54:58;;;;;;;7.30;3.40;;;;;;;7.91;100.00;98599.39;669906;1265;153114;-82
2023/10/21 04:10:03;;;;;;;6.40;3.10;;;;;;;8.76;100.00;98617.52;668883;1266;138476;-82
2023/10/21 04:25:06;;;;;;;4.80;2.90;;;;;;;8.31;100.00;98603.68;668508;1266;138939;-84
2023/10/21 04:40:11;;;;;;;8.60;3.20;;;;;;;8.04;100.00;98613.89;668792;1265;138614;-81
2023/10/21 04:55:15;;;;;;;9.00;4.60;;;;;;;7.88;100.00;98597.70;677463;1265;139287;-82
2023/10/21 05:10:18;;;;;;;10.70;4.80;;;;;;;7.87;100.00;98617.95;681534;1266;138903;-83
2023/10/21 05:25:21;;;;;;;7.20;3.80;;;;;;;7.98;100.00;98635.95;677761;1263;138651;-81
2023/10/21 05:40:26;;;;;;;8.50;4.40;;;;;;;8.09;100.00;98654.54;671590;1263;138177;-81
2023/10/21 05:55:30;;;;;;;15.90;8.50;;;;;;;8.27;100.00;98656.13;672228;1260;139183;-80
2023/10/21 06:10:34;;;;;;;56.80;20.00;;;;;;;8.46;100.00;98641.61;669922;1266;138650;-81
2023/10/21 06:25:37;;;;;;;38.70;13.20;;;;;;;8.44;100.00;98649.67;672134;1266;139704;-81
2023/10/21 06:40:41;;;;;;;11.30;7.00;;;;;;;8.95;100.00;98652.80;677079;1267;139298;-82
2023/10/21 06:55:54;;;;;;;23.60;9.10;;;;;;;8.68;100.00;98659.33;673619;1276;138717;-82
2023/10/21 07:10:57;;;;;;;77.00;34.20;;;;;;;8.49;100.00;98677.94;672796;1267;138610;-82
2023/10/21 07:26:00;;;;;;;27.60;13.70;;;;;;;8.49;100.00;98746.20;670803;1264;139380;-80
2023/10/21 07:41:12;;;;;;;43.30;20.00;;;;;;;8.59;100.00;98811.25;669311;1263;138695;-80
2023/10/21 07:56:16;;;;;;;37.90;17.20;;;;;;;8.78;100.00;98821.10;668194;1266;138796;-80
2023/10/21 08:14:53;;;;;;;70.70;26.20;;;;;;;8.81;100.00;98830.06;651706;1305;545024;-80
2023/10/21 08:29:57;;;;;;;42.50;15.70;;;;;;;8.84;100.00;98826.22;664410;1284;137965;-80
2023/10/21 08:45:06;;;;;;;46.10;18.60;;;;;;;8.88;100.00;98805.25;664137;1275;138538;-80
2023/10/21 09:00:10;;;;;;;53.10;21.40;;;;;;;8.98;100.00;98809.18;665438;1275;138303;-80
2023/10/21 09:15:14;;;;;;;41.30;15.80;;;;;;;9.25;100.00;98837.02;664517;1274;138565;-81
2023/10/21 09:30:20;;;;;;;34.70;18.20;;;;;;;9.44;100.00;98836.58;665078;1275;138688;-79
2023/10/21 09:45:27;;;;;;;88.50;52.60;;;;;;;9.41;100.00;98874.27;663261;1282;138613;-81
2023/10/21 10:00:31;;;;;;;54.10;35.10;;;;;;;10.39;100.00;98940.10;667186;1270;138289;-80
2023/10/21 10:15:37;;;;;;;43.70;18.40;;;;;;;10.94;100.00;98948.67;670707;1264;138638;-80
2023/10/21 10:30:44;;;;;;;45.90;21.40;;;;;;;11.01;100.00;98917.32;666891;1277;138796;-81
2023/10/21 10:45:47;;;;;;;42.50;27.10;;;;;;;11.23;100.00;98903.35;669670;1264;139182;-81
2023/10/21 11:00:52;;;;;;;48.80;24.40;;;;;;;11.30;100.00;98923.33;668028;1267;139894;-79
2023/10/21 11:15:58;;;;;;;68.40;34.20;;;;;;;11.47;100.00;98982.03;669155;1269;139282;-81
2023/10/21 11:31:03;;;;;;;55.80;24.20;;;;;;;11.71;100.00;98992.27;671006;1269;139003;-81
2023/10/21 11:46:08;;;;;;;58.70;31.70;;;;;;;11.17;100.00;99011.79;670926;1269;139118;-81
2023/10/21 12:47:38;;;;;;;51.60;23.50;;;;;;;11.22;100.00;99066.21;670836;1264;139179;-82
2023/10/21 13:02:43;;;;;;;98.90;44.40;;;;;;;11.26;100.00;99092.38;672130;1268;139062;-80
2023/10/21 13:17:48;;;;;;;79.00;34.50;;;;;;;11.26;100.00;99095.52;671797;1268;138888;-81
2023/10/21 13:32:52;;;;;;;115.30;46.20;;;;;;;11.23;100.00;99098.61;671292;1264;138726;-81
2023/10/21 13:47:57;;;;;;;112.90;47.90;;;;;;;11.22;100.00;99126.71;670882;1264;139992;-80
2023/10/21 14:25:46;;;;;;;134.70;66.60;;;;;;;11.29;100.00;99175.46;650997;1308;545204;-82
2023/10/21 14:40:50;;;;;;;53.40;26.70;;;;;;;11.27;100.00;99183.11;667405;1284;139541;-81
2023/10/21 14:55:53;;;;;;;60.80;28.90;;;;;;;11.21;100.00;99212.91;672446;1270;138609;-81
2023/10/21 15:10:57;;;;;;;71.30;36.60;;;;;;;11.18;100.00;99230.23;666232;1277;140038;-79
2023/10/21 15:26:01;;;;;;;63.10;29.10;;;;;;;11.18;100.00;99233.95;667801;1274;138924;-81
2023/10/21 15:41:14;;;;;;;80.90;34.50;;;;;;;11.12;100.00;99260.39;663708;1283;139145;-81
2023/10/21 15:56:18;;;;;;;94.40;47.80;;;;;;;11.17;100.00;99289.98;669117;1272;138994;-79
2023/10/21 16:11:22;;;;;;;71.80;36.20;;;;;;;11.25;100.00;99302.98;665705;1272;139429;-80
2023/10/21 16:26:25;;;;;;;54.50;28.70;;;;;;;11.37;100.00;99331.48;668693;1273;138465;-79
2023/10/21 16:41:29;;;;;;;54.60;24.40;;;;;;;11.46;100.00;99345.45;663719;1272;138770;-80
2023/10/21 16:56:32;;;;;;;63.50;29.70;;;;;;;11.57;100.00;99358.38;664650;1275;139310;-79
2023/10/21 17:11:37;;;;;;;64.60;28.40;;;;;;;11.62;100.00;99345.95;665596;1275;139037;-80
2023/10/21 17:26:40;;;;;;;76.10;32.10;;;;;;;11.67;100.00;99368.06;665970;1273;138845;-80
2023/10/21 17:41:43;;;;;;;200.80;81.80;;;;;;;11.80;100.00;99393.81;668436;1265;139635;-80
2023/10/21 17:56:47;;;;;;;91.50;49.20;;;;;;;11.90;100.00;99422.74;671743;1266;138892;-80
2023/10/21 18:11:51;;;;;;;110.00;57.10;;;;;;;12.03;100.00;99448.89;670591;1267;138603;-80
2023/10/21 18:26:54;;;;;;;84.30;33.50;;;;;;;12.10;100.00;99489.46;670696;1263;139067;-80
2023/10/21 18:41:59;;;;;;;98.20;39.10;;;;;;;12.05;100.00;99502.77;672925;1266;139590;-81
2023/10/21 18:57:03;;;;;;;192.10;64.90;;;;;;;12.09;100.00;99499.05;669994;1267;139426;-79
2023/10/21 19:12:08;;;;;;;91.60;37.70;;;;;;;12.20;100.00;99512.05;669653;1258;139480;-79
2023/10/21 19:27:15;;;;;;;86.70;35.10;;;;;;;12.21;100.00;99523.34;673527;1264;139379;-81
2023/10/21 19:42:19;;;;;;;114.10;41.70;;;;;;;12.20;100.00;99529.27;678790;1262;139804;-80
2023/10/21 19:57:23;;;;;;;106.20;40.30;;;;;;;12.24;100.00;99554.58;672261;1260;139403;-79
2023/10/21 20:12:28;;;;;;;139.80;51.80;;;;;;;12.60;100.00;99555.84;670079;1260;139912;-80
2023/10/21 20:27:31;;;;;;;94.10;36.30;;;;;;;13.31;100.00;99558.08;670862;1259;139312;-79
2023/10/21 20:42:36;;;;;;;96.50;31.70;;;;;;;13.14;100.00;99561.27;669850;1259;139383;-81
2023/10/21 20:57:39;;;;;;;125.90;35.60;;;;;;;13.01;100.00;99557.19;672139;1261;139416;-80
2023/10/21 21:12:44;;;;;;;82.20;25.60;;;;;;;12.86;100.00;99556.20;670860;1257;139589;-79
2023/10/21 21:27:49;;;;;;;84.30;29.50;;;;;;;12.67;100.00;99558.60;669786;1259;140611;-80
2023/10/21 21:42:52;;;;;;;85.60;26.80;;;;;;;12.24;100.00;99569.29;674268;1260;139315;-80
2023/10/21 21:57:58;;;;;;;108.50;39.90;;;;;;;11.13;100.00;99562.88;673438;1260;139210;-80
2023/10/21 22:13:01;;;;;;;71.20;24.30;;;;;;;11.04;100.00;99583.17;671030;1262;139826;-80
2023/10/21 22:28:12;;;;;;;102.90;28.80;;;;;;;11.01;100.00;99585.42;673538;1262;140377;-80
2023/10/21 22:43:17;;;;;;;189.80;42.40;;;;;;;10.91;100.00;99575.76;671470;1259;139566;-80
2023/10/21 22:58:21;;;;;;;93.90;24.00;;;;;;;10.98;100.00;99577.73;674262;1261;139107;-80
2023/10/21 23:13:24;;;;;;;101.00;25.60;;;;;;;10.94;100.00;99588.07;673828;1262;140311;-80
2023/10/21 23:28:28;;;;;;;114.30;36.20;;;;;;;10.91;100.00;99592.11;673751;1262;139853;-80
2023/10/21 23:43:31;;;;;;;59.40;15.10;;;;;;;10.91;100.00;99588.66;673966;1260;139020;-80
2023/10/21 23:58:37;;;;;;;71.40;18.60;;;;;;;10.84;100.00;99609.17;671087;1262;139318;-80
